createdAt,value
2018-08-22T00:01:59.310Z,81.81
2018-08-22T00:04:27.928Z,82.25
2018-08-22T00:06:56.477Z,82.07
2018-08-22T00:09:24.845Z,81.94
2018-08-22T00:11:53.392Z,83.34
2018-08-22T00:14:21.814Z,83.10
2018-08-22T00:16:50.484Z,82.61
2018-08-22T00:19:18.998Z,83.23
2018-08-22T00:21:47.474Z,83.23
2018-08-22T00:24:15.957Z,83.48
2018-08-22T00:26:44.450Z,83.36
2018-08-22T00:29:12.970Z,83.57
2018-08-22T00:31:41.449Z,84.10
2018-08-22T00:34:09.912Z,84.55
2018-08-22T00:36:38.465Z,85.68
2018-08-22T00:39:07.861Z,85.93
2018-08-22T00:41:36.342Z,86.64
2018-08-22T00:44:04.837Z,87.17
2018-08-22T00:46:33.306Z,87.25
2018-08-22T00:49:01.806Z,87.19
2018-08-22T00:51:30.693Z,86.91
2018-08-22T00:53:59.169Z,87.33
2018-08-22T00:56:27.654Z,87.15
2018-08-22T00:58:56.165Z,87.35
2018-08-22T01:01:24.692Z,87.65
2018-08-22T01:03:53.261Z,87.20
2018-08-22T01:06:21.701Z,88.43
2018-08-22T01:08:50.429Z,87.29
2018-08-22T01:11:18.950Z,87.74
2018-08-22T01:13:47.461Z,88.46
2018-08-22T01:16:15.893Z,88.25
2018-08-22T01:18:44.421Z,88.81
2018-08-22T01:21:12.873Z,87.85
2018-08-22T01:23:41.293Z,88.01
2018-08-22T01:26:09.705Z,87.95
2018-08-22T01:28:38.249Z,87.43
2018-08-22T01:31:06.690Z,86.97
2018-08-22T01:33:35.487Z,87.50
2018-08-22T01:36:03.941Z,88.13
2018-08-22T01:38:32.516Z,88.60
2018-08-22T01:41:00.914Z,89.20
2018-08-22T01:43:29.845Z,89.25
2018-08-22T01:45:58.227Z,90.17
2018-08-22T01:48:26.727Z,90.36
2018-08-22T01:50:55.141Z,90.94
2018-08-22T01:53:23.659Z,90.80
2018-08-22T01:55:52.233Z,91.51
2018-08-22T01:58:20.685Z,91.77
2018-08-22T02:00:49.225Z,92.13
2018-08-22T02:03:17.673Z,92.73
2018-08-22T02:05:46.253Z,92.79
2018-08-22T02:08:14.706Z,92.61
2018-08-22T02:10:43.117Z,93.26
2018-08-22T02:13:11.705Z,93.23
2018-08-22T02:15:40.477Z,93.54
2018-08-22T02:18:09.096Z,93.41
2018-08-22T02:20:37.826Z,93.41
2018-08-22T02:23:06.497Z,93.61
2018-08-22T02:25:34.925Z,93.80
2018-08-22T02:28:03.596Z,93.35
2018-08-22T02:30:32.085Z,92.75
2018-08-22T02:33:00.561Z,92.32
2018-08-22T02:35:29.394Z,92.83
2018-08-22T02:37:57.859Z,93.21
2018-08-22T02:40:26.317Z,93.43
2018-08-22T02:42:54.885Z,93.75
2018-08-22T02:45:23.445Z,94.36
2018-08-22T02:47:51.961Z,94.51
2018-08-22T02:50:20.521Z,94.03
2018-08-22T02:52:48.913Z,94.74
2018-08-22T02:55:17.429Z,94.55
2018-08-22T02:57:45.886Z,94.71
2018-08-22T03:00:14.386Z,94.95
2018-08-22T03:02:42.857Z,95.49
2018-08-22T03:05:11.354Z,96.69
2018-08-22T03:07:39.889Z,96.93
2018-08-22T03:10:08.262Z,97.52
2018-08-22T03:12:36.705Z,97.66
2018-08-22T03:15:05.174Z,98.09
2018-08-22T03:17:33.654Z,98.12
2018-08-22T03:20:02.121Z,98.63
2018-08-22T03:22:30.921Z,98.12
2018-08-22T03:24:59.401Z,97.87
2018-08-22T03:27:27.968Z,97.62
2018-08-22T03:29:56.449Z,98.01
2018-08-22T03:32:25.001Z,97.43
2018-08-22T03:34:53.406Z,97.53
2018-08-22T03:37:21.822Z,97.44
2018-08-22T03:39:50.334Z,98.72
2018-08-22T03:42:18.781Z,98.00
2018-08-22T03:44:47.237Z,98.12
2018-08-22T03:47:15.633Z,98.25
2018-08-22T03:49:44.098Z,98.02
2018-08-22T03:52:12.513Z,98.54
2018-08-22T03:54:41.034Z,99.07
2018-08-22T03:57:09.461Z,99.50
2018-08-22T03:59:37.952Z,98.82
2018-08-22T04:02:07.481Z,98.57
2018-08-22T04:04:35.905Z,99.05
2018-08-22T04:07:04.417Z,99.14
2018-08-22T04:09:32.886Z,99.43
2018-08-22T04:12:01.426Z,100.00
2018-08-22T04:14:30.345Z,100.00
2018-08-22T04:16:58.749Z,100.00
2018-08-22T04:19:27.280Z,100.00
2018-08-22T04:21:55.725Z,100.00
2018-08-22T04:24:24.177Z,100.00
2018-08-22T04:26:52.724Z,100.00
2018-08-22T04:29:21.146Z,100.00
2018-08-22T04:31:49.705Z,100.00
2018-08-22T04:34:18.110Z,100.00
2018-08-22T04:36:46.618Z,100.00
2018-08-22T04:39:15.073Z,100.00
2018-08-22T04:41:43.573Z,100.00
2018-08-22T04:44:13.305Z,100.00
2018-08-22T04:46:41.778Z,100.00
2018-08-22T04:49:10.235Z,100.00
2018-08-22T04:51:38.877Z,99.97
2018-08-22T04:54:07.072Z,100.00
2018-08-22T04:56:35.484Z,100.00
2018-08-22T04:59:03.986Z,100.00
2018-08-22T05:01:32.449Z,100.00
2018-08-22T05:04:00.954Z,100.00
2018-08-22T05:06:30.747Z,100.00
2018-08-22T05:08:59.241Z,100.00
2018-08-22T05:11:27.859Z,99.62
2018-08-22T05:13:56.571Z,99.46
2018-08-22T05:16:25.061Z,99.18
2018-08-22T05:18:53.488Z,98.27
2018-08-22T05:21:22.021Z,97.76
2018-08-22T05:23:50.961Z,97.54
2018-08-22T05:26:19.410Z,96.93
2018-08-22T05:28:47.938Z,96.89
2018-08-22T05:31:16.369Z,96.10
2018-08-22T05:33:44.930Z,95.75
2018-08-22T05:36:13.440Z,95.61
2018-08-22T05:38:41.947Z,95.03
2018-08-22T05:41:10.389Z,94.08
2018-08-22T05:43:39.006Z,93.46
2018-08-22T05:46:07.522Z,93.01
2018-08-22T05:48:35.958Z,92.93
2018-08-22T05:51:04.422Z,92.28
2018-08-22T05:53:32.983Z,92.19
2018-08-22T05:56:01.381Z,92.13
2018-08-22T05:58:30.136Z,91.71
2018-08-22T06:00:58.582Z,91.05
2018-08-22T06:03:27.041Z,90.56
2018-08-22T06:05:55.469Z,89.87
2018-08-22T06:08:23.985Z,89.76
2018-08-22T06:10:52.597Z,88.58
2018-08-22T06:13:21.050Z,89.29
2018-08-22T06:15:49.861Z,88.58
2018-08-22T06:18:18.217Z,87.16
2018-08-22T06:20:46.782Z,86.95
2018-08-22T06:23:15.183Z,86.85
2018-08-22T06:25:43.753Z,85.63
2018-08-22T06:28:12.150Z,85.80
2018-08-22T06:30:40.756Z,85.27
2018-08-22T06:33:09.301Z,84.73
2018-08-22T06:35:37.745Z,84.77
2018-08-22T06:38:06.214Z,83.75
2018-08-22T06:40:34.851Z,82.51
2018-08-22T06:43:03.265Z,82.34
2018-08-22T06:45:31.725Z,81.87
2018-08-22T06:48:00.554Z,81.24
2018-08-22T06:50:29.163Z,80.70
2018-08-22T06:52:57.604Z,80.62
2018-08-22T06:55:26.147Z,80.07
2018-08-22T06:57:54.553Z,80.03
2018-08-22T07:00:23.046Z,79.46
2018-08-22T07:02:51.686Z,78.94
2018-08-22T07:05:20.246Z,78.29
2018-08-22T07:07:48.634Z,77.38
2018-08-22T07:10:17.090Z,76.99
2018-08-22T07:12:45.539Z,76.86
2018-08-22T07:15:14.078Z,74.41
2018-08-22T07:17:42.506Z,73.99
2018-08-22T07:20:11.006Z,73.73
2018-08-22T07:22:39.581Z,73.59
2018-08-22T07:25:08.099Z,71.78
2018-08-22T07:27:36.541Z,69.62
2018-08-22T07:30:06.085Z,68.91
2018-08-22T07:32:34.700Z,68.61
2018-08-22T07:35:03.141Z,67.54
2018-08-22T07:37:31.785Z,67.14
2018-08-22T07:40:00.309Z,66.89
2018-08-22T07:42:29.023Z,66.93
2018-08-22T07:44:57.441Z,66.26
2018-08-22T07:47:26.329Z,65.83
2018-08-22T07:49:54.838Z,65.56
2018-08-22T07:52:23.322Z,65.02
2018-08-22T07:54:51.982Z,64.68
2018-08-22T07:57:23.335Z,64.75
2018-08-22T07:59:52.719Z,64.11
2018-08-22T08:02:21.180Z,63.87
2018-08-22T08:04:49.737Z,62.66
2018-08-22T08:07:18.484Z,62.63
2018-08-22T08:09:46.977Z,62.84
2018-08-22T08:12:15.546Z,61.91
2018-08-22T08:14:49.152Z,61.37
2018-08-22T08:17:17.721Z,60.19
2018-08-22T08:19:46.155Z,60.48
2018-08-22T08:22:14.562Z,60.28
2018-08-22T08:24:42.984Z,58.76
2018-08-22T08:27:11.526Z,59.16
2018-08-22T08:29:40.039Z,58.50
2018-08-22T08:32:08.621Z,57.53
2018-08-22T08:34:37.492Z,57.57
2018-08-22T08:37:06.106Z,56.28
2018-08-22T08:39:34.590Z,55.67
2018-08-22T08:42:03.462Z,55.35
2018-08-22T08:44:32.009Z,54.53
2018-08-22T08:47:00.601Z,55.14
2018-08-22T08:49:29.429Z,53.77
2018-08-22T08:52:00.524Z,53.62
2018-08-22T08:54:29.705Z,53.34
2018-08-22T08:56:58.385Z,51.83
2018-08-22T08:59:27.029Z,52.61
2018-08-22T09:01:55.682Z,52.31
2018-08-22T09:04:24.117Z,50.73
2018-08-22T09:06:52.678Z,49.53
2018-08-22T09:09:21.193Z,49.77
2018-08-22T09:11:54.762Z,49.19
2018-08-22T09:14:23.480Z,49.07
2018-08-22T09:16:51.962Z,49.40
2018-08-22T09:19:20.426Z,48.80
2018-08-22T09:21:49.392Z,48.43
2018-08-22T09:24:18.121Z,48.25
2018-08-22T09:26:46.610Z,47.65
2018-08-22T09:29:15.106Z,47.70
2018-08-22T09:31:43.572Z,46.19
2018-08-22T09:34:11.985Z,46.56
2018-08-22T09:36:40.569Z,45.05
2018-08-22T09:39:11.674Z,44.71
2018-08-22T09:41:40.245Z,44.02
2018-08-22T09:44:09.412Z,42.35
2018-08-22T09:46:39.000Z,42.36
2018-08-22T09:49:07.522Z,40.73
2018-08-22T09:51:36.207Z,39.77
2018-08-22T09:54:04.813Z,38.61
2018-08-22T09:56:33.207Z,38.27
2018-08-22T09:59:01.718Z,35.37
2018-08-22T10:01:35.577Z,34.78
2018-08-22T10:04:04.130Z,35.08
2018-08-22T10:06:41.888Z,33.83
2018-08-22T10:09:16.266Z,33.32
2018-08-22T10:11:44.877Z,31.86
2018-08-22T10:14:13.645Z,31.53
2018-08-22T10:16:42.034Z,30.45
2018-08-22T10:19:10.546Z,30.55
2018-08-22T10:21:39.058Z,29.60
2018-08-22T10:24:07.530Z,29.52
2018-08-22T10:26:36.012Z,29.50
2018-08-22T10:29:04.470Z,29.49
2018-08-22T10:31:32.869Z,27.86
2018-08-22T10:34:01.304Z,29.03
2018-08-22T10:36:29.973Z,29.13
2018-08-22T10:38:58.493Z,27.73
2018-08-22T10:41:26.949Z,27.10
2018-08-22T10:43:55.365Z,25.83
2018-08-22T10:46:23.797Z,25.55
2018-08-22T10:48:52.505Z,26.05
2018-08-22T10:51:20.991Z,25.50
2018-08-22T10:53:49.648Z,25.10
2018-08-22T10:56:18.210Z,26.14
2018-08-22T10:58:46.638Z,24.85
2018-08-22T11:01:15.182Z,23.94
2018-08-22T11:03:43.590Z,24.45
2018-08-22T11:06:12.093Z,22.91
2018-08-22T11:08:40.718Z,23.05
2018-08-22T11:11:09.110Z,22.23
2018-08-22T11:13:37.521Z,21.89
2018-08-22T11:16:06.047Z,21.84
2018-08-22T11:18:34.506Z,21.39
2018-08-22T11:21:14.251Z,20.80
2018-08-22T11:23:54.030Z,22.29
2018-08-22T11:26:33.741Z,21.30
2018-08-22T11:29:13.934Z,20.60
2018-08-22T11:31:53.653Z,20.28
2018-08-22T11:34:33.508Z,20.68
2018-08-22T11:37:07.834Z,20.68
2018-08-22T11:39:36.306Z,20.56
2018-08-22T11:42:05.134Z,19.32
2018-08-22T11:44:33.529Z,18.86
2018-08-22T11:47:02.207Z,19.41
2018-08-22T11:49:31.626Z,18.88
2018-08-22T11:52:00.285Z,18.63
2018-08-22T11:54:29.417Z,18.94
2018-08-22T11:56:57.877Z,17.83
2018-08-22T11:59:26.370Z,18.36
2018-08-22T12:01:54.894Z,17.63
2018-08-22T12:04:23.282Z,17.83
2018-08-22T12:06:52.129Z,16.87
2018-08-22T12:09:20.613Z,16.09
2018-08-22T12:11:49.257Z,16.27
2018-08-22T12:14:17.666Z,16.25
2018-08-22T12:16:46.097Z,15.67
2018-08-22T12:19:14.530Z,15.80
2018-08-22T12:21:43.223Z,14.97
2018-08-22T12:24:11.714Z,14.93
2018-08-22T12:26:40.370Z,14.92
2018-08-22T12:29:08.845Z,14.25
2018-08-22T12:31:37.450Z,14.19
2018-08-22T12:34:06.030Z,14.58
2018-08-22T12:36:34.546Z,14.48
2018-08-22T12:39:03.278Z,14.36
2018-08-22T12:41:31.871Z,13.74
2018-08-22T12:44:00.374Z,13.74
2018-08-22T12:46:28.918Z,13.67
2018-08-22T12:48:57.308Z,13.78
2018-08-22T12:51:25.725Z,13.73
2018-08-22T12:53:54.201Z,13.50
2018-08-22T12:56:22.693Z,12.55
2018-08-22T12:58:51.194Z,12.75
2018-08-22T13:01:19.657Z,12.58
2018-08-22T13:03:48.062Z,12.79
2018-08-22T13:06:16.518Z,11.59
2018-08-22T13:08:44.978Z,12.26
2018-08-22T13:11:13.554Z,11.74
2018-08-22T13:13:41.951Z,12.66
2018-08-22T13:16:10.461Z,11.15
2018-08-22T13:18:38.977Z,11.32
2018-08-22T13:21:07.421Z,10.75
2018-08-22T13:23:35.811Z,10.27
2018-08-22T13:26:04.291Z,9.89
2018-08-22T13:28:32.730Z,10.37
2018-08-22T13:31:01.253Z,10.74
2018-08-22T13:33:29.753Z,11.05
2018-08-22T13:35:58.162Z,10.61
2018-08-22T13:38:26.574Z,9.96
2018-08-22T13:40:55.038Z,10.10
2018-08-22T13:43:23.558Z,10.05
2018-08-22T13:45:52.078Z,10.94
2018-08-22T13:48:20.519Z,10.45
2018-08-22T13:50:49.053Z,10.70
2018-08-22T13:53:17.437Z,9.52
2018-08-22T13:55:45.948Z,11.02
2018-08-22T13:58:14.418Z,10.67
2018-08-22T14:00:42.941Z,10.00
2018-08-22T14:03:11.380Z,9.47
2018-08-22T14:05:39.842Z,9.14
2018-08-22T14:08:08.357Z,10.37
2018-08-22T14:10:36.882Z,10.54
2018-08-22T14:13:05.385Z,10.92
2018-08-22T14:15:33.874Z,11.08
2018-08-22T14:18:02.481Z,10.56
2018-08-22T14:20:31.029Z,11.07
2018-08-22T14:22:59.550Z,12.22
2018-08-22T14:25:28.043Z,11.56
2018-08-22T14:27:56.596Z,10.81
2018-08-22T14:30:25.066Z,10.35
2018-08-22T14:32:53.612Z,9.53
2018-08-22T14:35:22.035Z,9.78
2018-08-22T14:37:50.653Z,10.64
2018-08-22T14:40:19.235Z,10.76
2018-08-22T14:42:47.945Z,14.38
2018-08-22T14:45:16.370Z,16.09
2018-08-22T14:47:44.853Z,18.60
2018-08-22T14:50:13.313Z,20.45
2018-08-22T14:52:41.965Z,21.04
2018-08-22T14:55:10.393Z,20.69
2018-08-22T14:57:38.957Z,21.42
2018-08-22T15:00:07.950Z,21.34
2018-08-22T15:02:36.448Z,22.07
2018-08-22T15:05:04.905Z,22.28
2018-08-22T15:07:33.362Z,20.86
2018-08-22T15:10:01.845Z,16.98
2018-08-22T15:12:30.467Z,13.76
2018-08-22T15:14:58.986Z,12.25
2018-08-22T15:17:27.405Z,11.55
2018-08-22T15:19:55.818Z,10.27
2018-08-22T15:22:24.302Z,10.48
2018-08-22T15:24:52.903Z,11.34
2018-08-22T15:27:21.305Z,12.82
2018-08-22T15:29:49.810Z,14.72
2018-08-22T15:32:18.330Z,15.51
2018-08-22T15:34:54.267Z,18.32
2018-08-22T15:37:23.171Z,20.23
2018-08-22T15:39:51.857Z,21.94
2018-08-22T15:42:20.402Z,23.64
2018-08-22T15:44:49.053Z,23.99
2018-08-22T15:47:17.577Z,24.95
2018-08-22T15:49:46.729Z,25.68
2018-08-22T15:52:15.390Z,27.06
2018-08-22T15:54:48.422Z,27.09
2018-08-22T15:57:16.877Z,27.21
2018-08-22T15:59:45.377Z,27.62
2018-08-22T16:02:13.864Z,27.71
2018-08-22T16:04:54.237Z,27.09
2018-08-22T16:07:22.690Z,27.14
2018-08-22T16:09:51.226Z,27.45
2018-08-22T16:12:19.650Z,26.38
2018-08-22T16:14:48.158Z,24.61
2018-08-22T16:17:16.633Z,25.10
2018-08-22T16:19:45.107Z,25.69
2018-08-22T16:22:13.500Z,25.23
2018-08-22T16:24:43.082Z,25.51
2018-08-22T16:27:11.854Z,25.86
2018-08-22T16:29:40.409Z,24.55
2018-08-22T16:32:08.985Z,25.14
2018-08-22T16:34:38.457Z,26.18
2018-08-22T16:37:07.642Z,26.91
2018-08-22T16:39:42.897Z,26.91
2018-08-22T16:42:11.891Z,28.14
2018-08-22T16:44:40.969Z,28.45
2018-08-22T16:47:09.362Z,29.80
2018-08-22T16:49:37.897Z,29.97
2018-08-22T16:52:06.497Z,30.61
2018-08-22T16:54:34.922Z,31.42
2018-08-22T16:57:03.397Z,32.11
2018-08-22T16:59:32.058Z,33.49
2018-08-22T17:02:00.579Z,33.93
2018-08-22T17:04:29.148Z,34.28
2018-08-22T17:07:02.568Z,36.33
2018-08-22T17:09:31.185Z,37.17
2018-08-22T17:11:59.641Z,37.88
2018-08-22T17:14:28.090Z,37.69
2018-08-22T17:16:56.562Z,37.92
2018-08-22T17:19:24.969Z,37.92
2018-08-22T17:21:53.501Z,39.87
2018-08-22T17:24:22.025Z,43.20
2018-08-22T17:26:50.790Z,42.59
2018-08-22T17:29:19.287Z,41.46
2018-08-22T17:31:51.929Z,41.06
2018-08-22T17:34:20.503Z,40.87
2018-08-22T17:37:00.957Z,40.54
2018-08-22T17:39:32.514Z,40.02
2018-08-22T17:42:01.606Z,40.40
2018-08-22T17:44:30.304Z,40.83
2018-08-22T17:46:58.765Z,41.62
2018-08-22T17:49:27.213Z,42.55
2018-08-22T17:51:57.291Z,43.15
2018-08-22T17:54:26.090Z,43.37
2018-08-22T17:57:09.650Z,43.69
2018-08-22T17:59:38.421Z,43.73
2018-08-22T18:02:07.186Z,43.65
2018-08-22T18:04:47.269Z,44.28
2018-08-22T18:07:16.441Z,44.75
2018-08-22T18:09:45.661Z,45.23
2018-08-22T18:12:14.137Z,46.39
2018-08-22T18:14:42.922Z,46.91
2018-08-22T18:17:11.416Z,47.99
2018-08-22T18:19:40.446Z,49.26
2018-08-22T18:22:09.526Z,49.72
2018-08-22T18:24:58.232Z,50.02
2018-08-22T18:27:27.093Z,50.87
2018-08-22T18:29:55.598Z,51.14
2018-08-22T18:32:24.293Z,51.22
2018-08-22T18:35:05.981Z,51.19
2018-08-22T18:37:34.515Z,51.84
2018-08-22T18:40:10.658Z,52.42
2018-08-22T18:42:39.822Z,53.30
2018-08-22T18:45:08.901Z,54.05
2018-08-22T18:47:37.811Z,54.64
2018-08-22T18:50:06.618Z,55.27
2018-08-22T18:52:35.106Z,55.67
2018-08-22T18:55:03.632Z,55.43
2018-08-22T18:57:32.370Z,56.21
2018-08-22T19:00:03.677Z,56.89
2018-08-22T19:02:32.254Z,57.73
2018-08-22T19:05:14.801Z,57.78
2018-08-22T19:08:18.849Z,58.11
2018-08-22T19:10:49.951Z,57.57
2018-08-22T19:13:23.558Z,57.94
2018-08-22T19:15:54.309Z,57.83
2018-08-22T19:18:22.990Z,57.53
2018-08-22T19:20:53.737Z,57.53
2018-08-22T19:23:22.431Z,57.93
2018-08-22T19:25:51.875Z,58.08
2018-08-22T19:28:20.206Z,58.03
2018-08-22T19:30:49.024Z,58.53
2018-08-22T19:33:19.521Z,58.42
2018-08-22T19:35:48.271Z,59.38
2018-08-22T19:38:18.829Z,59.40
2018-08-22T19:40:47.386Z,60.80
2018-08-22T19:43:15.924Z,61.44
2018-08-22T19:45:44.573Z,60.72
2018-08-22T19:48:13.081Z,60.68
2018-08-22T19:50:41.818Z,60.85
2018-08-22T19:53:10.278Z,61.11
2018-08-22T19:55:39.205Z,61.43
2018-08-22T19:58:08.033Z,61.08
2018-08-22T20:00:36.642Z,60.75
2018-08-22T20:03:05.340Z,60.12
2018-08-22T20:05:47.729Z,59.94
2018-08-22T20:08:16.262Z,61.20
2018-08-22T20:10:44.762Z,60.87
2018-08-22T20:13:13.265Z,61.71
2018-08-22T20:15:41.798Z,61.79
2018-08-22T20:18:10.241Z,62.44
2018-08-22T20:20:38.722Z,61.98
2018-08-22T20:23:07.258Z,61.42
2018-08-22T20:25:35.657Z,61.63
2018-08-22T20:28:04.197Z,62.07
2018-08-22T20:30:32.773Z,62.36
2018-08-22T20:33:06.641Z,62.42
2018-08-22T20:35:36.538Z,62.44
2018-08-22T20:38:10.321Z,62.54
2018-08-22T20:40:38.808Z,63.07
2018-08-22T20:43:11.716Z,62.72
2018-08-22T20:45:40.337Z,63.48
2018-08-22T20:48:10.847Z,63.79
2018-08-22T20:50:40.684Z,63.02
2018-08-22T20:53:10.473Z,63.72
2018-08-22T20:55:39.237Z,63.76
2018-08-22T20:58:07.790Z,63.20
2018-08-22T21:00:37.158Z,63.33
2018-08-22T21:03:05.669Z,63.39
2018-08-22T21:05:34.094Z,63.84
2018-08-22T21:08:02.597Z,62.59
2018-08-22T21:10:31.426Z,63.05
2018-08-22T21:13:00.337Z,63.10
2018-08-22T21:15:29.300Z,62.49
2018-08-22T21:17:57.785Z,62.77
2018-08-22T21:20:27.024Z,62.69
2018-08-22T21:22:56.956Z,63.08
2018-08-22T21:25:25.433Z,61.98
2018-08-22T21:27:54.554Z,62.10
2018-08-22T21:30:23.042Z,61.83
2018-08-22T21:32:51.705Z,61.21
2018-08-22T21:35:26.261Z,62.05
2018-08-22T21:37:59.260Z,62.59
2018-08-22T21:40:27.674Z,62.30
2018-08-22T21:42:56.267Z,62.76
2018-08-22T21:45:24.766Z,63.44
2018-08-22T21:48:08.429Z,63.19
2018-08-22T21:50:36.857Z,63.17
2018-08-22T21:53:05.272Z,62.68
2018-08-22T21:55:41.954Z,62.80
2018-08-22T21:58:11.235Z,62.41
2018-08-22T22:00:39.804Z,62.94
2018-08-22T22:03:09.175Z,63.52
2018-08-22T22:05:53.181Z,64.04
2018-08-22T22:08:21.684Z,64.21
2018-08-22T22:10:51.421Z,64.47
2018-08-22T22:13:19.893Z,63.75
2018-08-22T22:15:48.460Z,64.02
2018-08-22T22:18:17.057Z,63.61
2018-08-22T22:20:49.625Z,65.02
2018-08-22T22:23:18.084Z,65.22
2018-08-22T22:25:46.545Z,65.50
2018-08-22T22:28:15.097Z,65.48
2018-08-22T22:30:43.511Z,65.72
2018-08-22T22:33:12.004Z,64.67
2018-08-22T22:35:41.498Z,64.40
2018-08-22T22:38:11.925Z,65.02
2018-08-22T22:40:40.850Z,66.16
2018-08-22T22:43:11.847Z,66.66
2018-08-22T22:45:40.417Z,66.77
2018-08-22T22:48:08.861Z,66.81
2018-08-22T22:50:37.513Z,67.35
2018-08-22T22:53:06.385Z,67.58
2018-08-22T22:55:34.990Z,67.15
2018-08-22T22:58:03.793Z,66.68
2018-08-22T23:00:32.478Z,66.94
2018-08-22T23:03:07.129Z,66.54
2018-08-22T23:05:35.593Z,66.43
2018-08-22T23:08:04.243Z,66.01
2018-08-22T23:10:32.752Z,64.99
2018-08-22T23:13:01.265Z,65.27
2018-08-22T23:15:30.965Z,65.43
2018-08-22T23:18:01.737Z,64.49
2018-08-22T23:20:40.386Z,62.93
2018-08-22T23:23:25.569Z,63.32
2018-08-22T23:25:54.762Z,62.75
2018-08-22T23:28:23.261Z,63.42
2018-08-22T23:30:51.945Z,63.38
2018-08-22T23:33:20.426Z,63.36
2018-08-22T23:35:50.337Z,63.64
2018-08-22T23:38:26.861Z,63.36
2018-08-22T23:40:55.403Z,63.29
2018-08-22T23:43:23.924Z,64.75
2018-08-22T23:45:55.206Z,65.18
2018-08-22T23:48:29.363Z,64.51
2018-08-22T23:51:01.741Z,65.44
2018-08-22T23:53:36.715Z,65.35
2018-08-22T23:56:17.389Z,64.72
2018-08-22T23:58:46.714Z,64.96
